Time;durP1;ratioP1;P1;durP2;ratioP2;P2;SDS_P1;SDS_P2;PMS_P1;PMS_P2;Temp;Humidity;BMP_temperature;BMP_pressure;BME280_temperature;BME280_humidity;BME280_pressure;Samples;Min_cycle;Max_cycle;Signal;HPM_P1;HPM_P2
2024/03/09 00:00:32;;;;;;;33.00;20.00;;;1.80;99.90;;;;;;5114692;27;20026;-76
2024/03/09 00:03:01;;;;;;;27.10;14.63;;;1.80;99.90;;;;;;5109511;27;20408;-76
2024/03/09 00:05:28;;;;;;;24.10;14.03;;;1.80;99.90;;;;;;5108141;28;20053;-77
2024/03/09 00:07:56;;;;;;;25.70;14.33;;;1.80;99.90;;;;;;5108456;27;20054;-77
2024/03/09 00:10:26;;;;;;;25.97;15.07;;;1.80;99.90;;;;;;5109796;28;20027;-76
2024/03/09 00:12:53;;;;;;;25.00;13.77;;;1.80;99.90;;;;;;5111193;28;20031;-76
2024/03/09 00:15:19;;;;;;;25.60;15.77;;;1.80;99.90;;;;;;5111142;27;20019;-77
2024/03/09 00:17:47;;;;;;;24.27;14.00;;;1.70;99.90;;;;;;5107914;28;20043;-77
2024/03/09 00:20:21;;;;;;;23.53;15.13;;;1.70;99.90;;;;;;5111291;27;20024;-77
2024/03/09 00:22:54;;;;;;;24.23;14.60;;;1.70;99.90;;;;;;5104284;28;20059;-77
2024/03/09 00:25:20;;;;;;;23.57;14.67;;;1.70;99.90;;;;;;5107893;27;20035;-77
2024/03/09 00:27:46;;;;;;;22.60;13.27;;;1.70;99.90;;;;;;5108207;28;20392;-76
2024/03/09 00:30:19;;;;;;;24.97;14.53;;;1.70;99.90;;;;;;5111850;28;20020;-77
2024/03/09 00:32:46;;;;;;;21.97;13.77;;;1.60;99.90;;;;;;5107891;28;20020;-76
2024/03/09 00:35:11;;;;;;;24.73;14.47;;;1.60;99.90;;;;;;5107731;28;20034;-77
2024/03/09 00:37:37;;;;;;;22.03;14.13;;;1.60;99.90;;;;;;5108205;28;20019;-76
2024/03/09 00:40:04;;;;;;;24.03;13.97;;;1.60;99.90;;;;;;5116815;27;20107;-77
2024/03/09 00:42:32;;;;;;;21.37;13.33;;;1.60;99.90;;;;;;5110102;28;20036;-76
2024/03/09 00:45:01;;;;;;;23.67;13.60;;;1.60;99.90;;;;;;5108448;27;20019;-77
2024/03/09 00:47:26;;;;;;;26.20;13.70;;;1.60;99.90;;;;;;5107849;28;20046;-77
2024/03/09 00:49:54;;;;;;;23.37;12.60;;;1.60;99.90;;;;;;5108126;28;20047;-76
2024/03/09 00:52:20;;;;;;;24.93;13.17;;;1.60;99.90;;;;;;5111218;28;20031;-77
2024/03/09 00:54:45;;;;;;;21.27;12.73;;;1.60;99.90;;;;;;5107463;27;20072;-77
2024/03/09 00:57:12;;;;;;;21.37;13.57;;;1.60;99.90;;;;;;5109683;28;20451;-77
2024/03/09 00:59:38;;;;;;;21.57;12.33;;;1.60;99.90;;;;;;5112458;28;20908;-76
2024/03/09 01:02:03;;;;;;;20.07;11.80;;;1.60;99.90;;;;;;5109656;28;20028;-77
2024/03/09 01:04:30;;;;;;;21.77;13.37;;;1.50;99.90;;;;;;5107577;28;20026;-77
2024/03/09 01:06:57;;;;;;;18.70;12.17;;;1.50;99.90;;;;;;5110480;28;20019;-76
2024/03/09 01:09:25;;;;;;;20.30;12.27;;;1.50;99.90;;;;;;5116643;27;20015;-77
2024/03/09 01:11:52;;;;;;;17.60;11.40;;;1.40;99.90;;;;;;5117119;27;20118;-77
2024/03/09 01:14:18;;;;;;;20.80;13.17;;;1.40;99.90;;;;;;5113013;27;20095;-77
2024/03/09 01:16:44;;;;;;;19.73;12.53;;;1.40;99.90;;;;;;5112332;27;20130;-76
2024/03/09 01:19:10;;;;;;;19.87;12.40;;;1.40;99.90;;;;;;5111913;28;20038;-77
2024/03/09 01:21:35;;;;;;;21.13;13.00;;;1.40;99.90;;;;;;5118592;27;20023;-77
2024/03/09 01:24:04;;;;;;;21.83;13.00;;;1.30;99.90;;;;;;5118132;27;20031;-76
2024/03/09 01:26:30;;;;;;;23.33;13.20;;;1.30;99.90;;;;;;5115920;27;20034;-77
2024/03/09 01:28:56;;;;;;;21.03;13.73;;;1.20;99.90;;;;;;5111433;27;20110;-76
2024/03/09 01:31:27;;;;;;;29.13;13.43;;;1.20;99.90;;;;;;5115858;27;20139;-77
2024/03/09 01:33:54;;;;;;;18.73;12.57;;;1.10;99.90;;;;;;5113030;28;20106;-76
2024/03/09 01:36:20;;;;;;;21.67;13.67;;;1.10;99.90;;;;;;5119319;27;20045;-77
2024/03/09 01:38:48;;;;;;;22.67;13.20;;;1.10;99.90;;;;;;5111554;27;20055;-76
2024/03/09 01:41:14;;;;;;;26.80;13.10;;;1.00;99.90;;;;;;5111487;27;20099;-77
2024/03/09 01:43:39;;;;;;;20.63;13.53;;;1.00;99.90;;;;;;5113408;27;20213;-76
2024/03/09 01:46:05;;;;;;;23.13;12.20;;;1.00;99.90;;;;;;5115166;27;20106;-76
2024/03/09 01:48:31;;;;;;;21.10;12.73;;;0.90;99.90;;;;;;5113622;28;20102;-76
2024/03/09 01:50:58;;;;;;;21.40;13.70;;;0.90;99.90;;;;;;5109084;27;20088;-76
2024/03/09 01:53:24;;;;;;;19.97;12.67;;;0.90;99.90;;;;;;5111513;27;20499;-76
2024/03/09 01:55:50;;;;;;;22.40;12.87;;;0.80;99.90;;;;;;5110729;28;20024;-76
2024/03/09 01:58:20;;;;;;;20.60;12.93;;;0.80;99.90;;;;;;5111859;27;20031;-77
2024/03/09 02:00:54;;;;;;;21.53;13.60;;;0.80;99.90;;;;;;5120064;27;20375;-76
2024/03/09 02:03:23;;;;;;;23.87;13.83;;;0.80;99.90;;;;;;5111451;28;20148;-77
2024/03/09 02:05:50;;;;;;;25.77;13.13;;;0.70;99.90;;;;;;5110532;28;20016;-76
2024/03/09 02:08:17;;;;;;;24.73;13.97;;;0.70;99.90;;;;;;5113965;28;20012;-76
2024/03/09 02:10:42;;;;;;;25.27;13.20;;;0.60;99.90;;;;;;5111412;27;20031;-76
2024/03/09 02:13:10;;;;;;;22.27;12.73;;;0.60;99.90;;;;;;5112841;28;20023;-76
2024/03/09 02:15:36;;;;;;;21.47;13.33;;;0.60;99.90;;;;;;5117091;27;20388;-76
2024/03/09 02:18:02;;;;;;;26.07;14.37;;;0.50;99.90;;;;;;5111074;27;20051;-76
2024/03/09 02:20:30;;;;;;;21.17;13.20;;;0.50;99.90;;;;;;5110603;27;20075;-76
2024/03/09 02:22:58;;;;;;;24.80;14.63;;;0.50;99.90;;;;;;5110395;27;20042;-76
2024/03/09 02:25:26;;;;;;;21.63;12.83;;;0.40;99.90;;;;;;5108377;27;20028;-76
2024/03/09 02:27:52;;;;;;;22.43;13.20;;;0.40;99.90;;;;;;5118051;27;20016;-76
2024/03/09 02:30:21;;;;;;;24.03;14.10;;;0.40;99.90;;;;;;5111602;27;20084;-76
2024/03/09 02:32:50;;;;;;;21.80;13.37;;;0.40;99.90;;;;;;5115000;27;20372;-76
2024/03/09 02:35:17;;;;;;;22.43;13.73;;;0.30;99.90;;;;;;5110558;27;20016;-76
2024/03/09 02:37:43;;;;;;;23.37;14.20;;;0.30;99.90;;;;;;5111949;27;20375;-76
2024/03/09 02:40:11;;;;;;;22.17;14.00;;;0.20;99.90;;;;;;5110384;28;20023;-76
2024/03/09 02:43:03;;;;;;;22.10;13.77;;;0.20;99.90;;;;;;5110073;28;20096;-77
2024/03/09 02:45:27;;;;;;;21.30;13.60;;;0.20;99.90;;;;;;5109491;27;20152;-77
2024/03/09 02:47:53;;;;;;;24.67;14.40;;;0.20;99.90;;;;;;5113995;27;20479;-76
2024/03/09 02:50:19;;;;;;;27.83;14.90;;;0.20;99.90;;;;;;5113105;28;20045;-76
2024/03/09 02:52:45;;;;;;;23.33;15.30;;;0.20;99.90;;;;;;5110030;27;20483;-77
2024/03/09 02:55:11;;;;;;;23.20;13.90;;;0.20;99.90;;;;;;5111822;27;20030;-77
2024/03/09 02:57:37;;;;;;;25.20;13.43;;;0.20;99.90;;;;;;5110014;27;20024;-76
2024/03/09 03:00:06;;;;;;;23.73;13.87;;;0.10;99.90;;;;;;5111783;27;20016;-76
2024/03/09 03:05:16;;;;;;;26.37;14.20;;;0.10;99.90;;;;;;5109391;27;20498;-76
2024/03/09 03:07:42;;;;;;;27.60;14.60;;;0.10;99.90;;;;;;5109642;27;20020;-76
2024/03/09 03:10:08;;;;;;;22.03;13.40;;;0.10;99.90;;;;;;5109712;28;20526;-76
2024/03/09 03:12:33;;;;;;;20.07;13.10;;;0.10;99.90;;;;;;5109783;28;20482;-77
2024/03/09 03:15:01;;;;;;;21.90;13.30;;;0.10;99.90;;;;;;5108468;28;20123;-77
2024/03/09 03:17:27;;;;;;;23.97;14.23;;;0.10;99.90;;;;;;5110862;28;20043;-76
2024/03/09 03:19:53;;;;;;;26.13;14.47;;;0.10;99.90;;;;;;5112882;27;20542;-77
2024/03/09 03:22:19;;;;;;;22.10;14.23;;;0.10;99.90;;;;;;5109020;27;20087;-76
2024/03/09 03:24:45;;;;;;;22.20;14.03;;;0.10;99.90;;;;;;5108822;27;20020;-76
2024/03/09 03:27:10;;;;;;;28.63;14.33;;;0.10;99.90;;;;;;5109331;27;20031;-76
2024/03/09 03:29:36;;;;;;;24.63;14.73;;;0.10;99.90;;;;;;5109619;27;20016;-77
2024/03/09 03:32:04;;;;;;;22.20;13.43;;;0.10;99.90;;;;;;5110518;27;20095;-77
2024/03/09 03:34:31;;;;;;;23.50;14.40;;;0.20;99.90;;;;;;5112528;28;20065;-77
2024/03/09 03:36:56;;;;;;;23.67;14.20;;;0.10;99.90;;;;;;5110133;27;20098;-76
2024/03/09 03:39:22;;;;;;;27.07;14.50;;;0.10;99.90;;;;;;5109425;27;20156;-77
2024/03/09 03:41:52;;;;;;;24.03;14.60;;;0.10;99.90;;;;;;5109061;27;20116;-76
2024/03/09 03:44:17;;;;;;;21.30;14.13;;;0.10;99.90;;;;;;5108666;27;20039;-77
2024/03/09 03:46:43;;;;;;;25.30;15.77;;;0.20;99.90;;;;;;5111533;28;20027;-76
2024/03/09 03:49:10;;;;;;;29.27;15.70;;;0.20;99.90;;;;;;5109169;28;20027;-77
2024/03/09 03:51:36;;;;;;;31.60;17.87;;;0.30;99.90;;;;;;5108595;27;20472;-76
2024/03/09 03:54:02;;;;;;;33.33;18.33;;;0.30;99.90;;;;;;5114780;27;20026;-77
2024/03/09 03:56:27;;;;;;;30.73;18.47;;;0.40;99.90;;;;;;5117741;27;20024;-76
2024/03/09 03:58:53;;;;;;;30.97;19.40;;;0.40;99.90;;;;;;5109457;27;20019;-76
2024/03/09 04:01:22;;;;;;;30.37;19.17;;;0.40;99.90;;;;;;5109866;27;20019;-77
2024/03/09 04:03:48;;;;;;;27.70;17.63;;;0.40;99.90;;;;;;5111217;27;20441;-77
2024/03/09 04:06:13;;;;;;;26.83;17.53;;;0.50;99.90;;;;;;5111401;27;20023;-76
2024/03/09 04:08:39;;;;;;;27.73;16.93;;;0.50;99.90;;;;;;5114113;27;20051;-76
2024/03/09 04:11:06;;;;;;;29.30;17.50;;;0.50;99.90;;;;;;5111279;28;20073;-76
2024/03/09 04:13:32;;;;;;;28.83;17.17;;;0.50;99.90;;;;;;5108296;28;20491;-77
2024/03/09 04:16:01;;;;;;;25.50;16.40;;;0.50;99.90;;;;;;5114847;27;20118;-77
2024/03/09 04:18:30;;;;;;;25.97;15.63;;;0.50;99.90;;;;;;5108481;28;20115;-77
2024/03/09 04:20:56;;;;;;;28.97;15.20;;;0.50;99.90;;;;;;5112551;27;20027;-77
2024/03/09 04:23:22;;;;;;;22.73;15.07;;;0.50;99.90;;;;;;5107966;27;20486;-77
2024/03/09 04:25:52;;;;;;;24.20;15.93;;;0.50;99.90;;;;;;5107918;28;20369;-77
2024/03/09 04:28:21;;;;;;;26.90;16.53;;;0.50;99.90;;;;;;5107998;27;20023;-76
2024/03/09 04:30:48;;;;;;;26.10;15.77;;;0.40;99.90;;;;;;5108296;28;20510;-77
2024/03/09 04:33:15;;;;;;;25.47;15.47;;;0.40;99.90;;;;;;5109579;28;20092;-77
2024/03/09 04:35:47;;;;;;;25.47;15.90;;;0.30;99.90;;;;;;5110205;28;20047;-76
2024/03/09 04:38:13;;;;;;;24.70;15.73;;;0.30;99.90;;;;;;5108401;28;20606;-76
2024/03/09 04:40:43;;;;;;;23.43;14.27;;;0.30;99.90;;;;;;5107971;28;20035;-76
2024/03/09 04:43:09;;;;;;;23.50;14.40;;;0.20;99.90;;;;;;5110008;28;20042;-76
2024/03/09 04:45:35;;;;;;;20.93;13.97;;;0.20;99.90;;;;;;5110548;27;20023;-76
2024/03/09 04:48:01;;;;;;;22.30;14.43;;;0.10;99.90;;;;;;5100507;28;20022;-76
2024/03/09 04:50:28;;;;;;;24.00;15.10;;;0.10;99.90;;;;;;5111874;28;20035;-76
2024/03/09 04:52:54;;;;;;;22.70;13.47;;;0.10;99.90;;;;;;5107265;28;20064;-76
2024/03/09 04:55:27;;;;;;;24.23;12.97;;;0.00;99.90;;;;;;5106946;28;20548;-76
2024/03/09 04:58:13;;;;;;;22.57;14.13;;;-0.10;99.90;;;;;;5109033;28;20023;-76
2024/03/09 05:00:39;;;;;;;21.43;13.47;;;-0.10;99.90;;;;;;5107518;28;20032;-76
2024/03/09 05:03:04;;;;;;;22.87;14.60;;;-0.20;99.90;;;;;;5111417;28;20058;-76
2024/03/09 05:05:31;;;;;;;22.63;14.40;;;-0.20;99.90;;;;;;5110859;28;20041;-76
2024/03/09 05:07:56;;;;;;;26.13;15.53;;;-0.30;99.90;;;;;;5112003;28;20031;-77
2024/03/09 05:10:22;;;;;;;24.20;14.67;;;-0.30;99.90;;;;;;5111854;28;20026;-76
2024/03/09 05:12:55;;;;;;;24.27;14.10;;;-0.30;99.90;;;;;;5115727;28;20047;-75
2024/03/09 05:15:25;;;;;;;24.93;14.30;;;-0.30;99.90;;;;;;5131679;27;20505;-75
2024/03/09 05:17:52;;;;;;;24.30;14.33;;;-0.30;99.90;;;;;;5131641;28;20022;-76
2024/03/09 05:20:22;;;;;;;29.37;15.50;;;-0.30;99.90;;;;;;5131963;28;20023;-75
2024/03/09 05:22:57;;;;;;;27.43;14.53;;;-0.30;99.90;;;;;;5131183;28;20087;-75
2024/03/09 05:25:23;;;;;;;25.98;15.18;;;-0.30;99.90;;;;;;5131290;27;20027;-76
2024/03/09 05:27:50;;;;;;;22.43;14.47;;;-0.30;99.90;;;;;;5132052;28;20054;-76
2024/03/09 05:30:18;;;;;;;24.43;15.00;;;-0.40;99.90;;;;;;5132186;28;20019;-76
2024/03/09 05:32:54;;;;;;;26.03;15.67;;;-0.30;99.90;;;;;;5131643;27;20076;-76
2024/03/09 05:35:26;;;;;;;24.97;14.33;;;-0.40;99.90;;;;;;5108333;28;20035;-75
2024/03/09 05:37:52;;;;;;;29.67;15.27;;;-0.40;99.90;;;;;;5110079;28;20024;-76
2024/03/09 05:40:19;;;;;;;27.27;15.60;;;-0.40;99.90;;;;;;5107322;28;20069;-76
2024/03/09 05:42:47;;;;;;;28.10;15.67;;;-0.40;99.90;;;;;;5109534;28;20085;-76
2024/03/09 05:45:18;;;;;;;33.77;15.10;;;-0.40;99.90;;;;;;5109967;28;20019;-76
2024/03/09 05:48:02;;;;;;;26.50;15.53;;;-0.40;99.90;;;;;;5108290;28;20160;-76
2024/03/09 05:50:28;;;;;;;33.10;16.93;;;-0.50;99.90;;;;;;5110638;28;20020;-77
2024/03/09 05:52:57;;;;;;;31.83;17.17;;;-0.40;99.90;;;;;;5110565;28;20031;-76
2024/03/09 05:55:23;;;;;;;28.23;16.13;;;-0.40;99.90;;;;;;5108094;28;20012;-76
2024/03/09 05:57:50;;;;;;;31.23;17.27;;;-0.40;99.90;;;;;;5113805;28;20396;-76
2024/03/09 06:00:17;;;;;;;31.73;19.03;;;-0.40;99.90;;;;;;5111859;28;20503;-76
2024/03/09 06:02:52;;;;;;;33.43;17.27;;;-0.40;99.90;;;;;;5114410;27;20032;-76
2024/03/09 06:05:19;;;;;;;32.05;17.08;;;-0.40;99.90;;;;;;5116264;27;20403;-76
2024/03/09 06:07:45;;;;;;;39.97;23.33;;;-0.40;99.90;;;;;;5116001;27;20107;-76
2024/03/09 06:10:14;;;;;;;39.80;22.23;;;-0.40;99.90;;;;;;5115810;27;20499;-76
2024/03/09 06:12:42;;;;;;;27.60;15.40;;;-0.40;99.90;;;;;;5116036;27;20110;-76
2024/03/09 06:15:07;;;;;;;28.03;15.43;;;-0.40;99.90;;;;;;5117758;27;20428;-76
2024/03/09 06:17:33;;;;;;;25.60;15.97;;;-0.40;99.90;;;;;;5114852;27;20110;-76
2024/03/09 06:20:02;;;;;;;27.23;14.70;;;-0.40;99.90;;;;;;5115128;27;20532;-76
2024/03/09 06:22:30;;;;;;;29.57;15.33;;;-0.40;99.90;;;;;;5115424;27;20027;-76
2024/03/09 06:24:55;;;;;;;27.00;14.60;;;-0.40;99.90;;;;;;5115052;27;20045;-77
2024/03/09 06:27:21;;;;;;;27.47;15.43;;;-0.30;99.90;;;;;;5117198;27;20019;-77
2024/03/09 06:29:46;;;;;;;27.43;15.40;;;-0.30;99.90;;;;;;5116872;27;20110;-76
2024/03/09 06:32:12;;;;;;;31.13;15.17;;;-0.30;99.90;;;;;;5116457;27;20023;-78
2024/03/09 06:34:43;;;;;;;34.73;16.80;;;-0.30;99.90;;;;;;5120026;27;20020;-77
2024/03/09 06:37:10;;;;;;;30.97;17.43;;;-0.20;99.90;;;;;;5113839;27;20038;-77
2024/03/09 06:39:38;;;;;;;31.90;17.07;;;-0.20;99.90;;;;;;5117279;27;20011;-78
2024/03/09 06:42:09;;;;;;;31.33;16.73;;;-0.10;99.90;;;;;;5111355;27;20062;-77
2024/03/09 06:44:37;;;;;;;28.70;17.03;;;0.00;99.90;;;;;;5114638;27;20031;-77
2024/03/09 06:47:07;;;;;;;30.63;15.87;;;0.10;99.90;;;;;;5114694;27;20480;-77
2024/03/09 06:49:36;;;;;;;30.17;18.07;;;0.20;99.90;;;;;;5115496;27;20062;-78
2024/03/09 06:52:02;;;;;;;29.00;17.07;;;0.30;99.90;;;;;;5096126;27;20475;-78
2024/03/09 06:54:29;;;;;;;29.83;17.23;;;0.30;99.90;;;;;;5120510;27;20464;-77
2024/03/09 06:56:55;;;;;;;28.10;17.13;;;0.40;99.90;;;;;;5113478;27;20073;-78
2024/03/09 06:59:21;;;;;;;26.17;16.80;;;0.40;99.90;;;;;;5113261;27;20027;-77
2024/03/09 07:01:50;;;;;;;29.33;18.47;;;0.40;99.90;;;;;;5113071;27;20019;-77
2024/03/09 07:04:18;;;;;;;34.87;20.83;;;0.50;99.90;;;;;;5122805;27;20106;-77
2024/03/09 07:06:47;;;;;;;33.57;19.53;;;0.60;99.90;;;;;;5116675;27;20498;-77
2024/03/09 07:09:12;;;;;;;35.50;21.43;;;0.60;99.90;;;;;;5112035;27;20034;-78
2024/03/09 07:11:38;;;;;;;36.03;20.40;;;0.70;99.90;;;;;;5121786;27;20031;-78
2024/03/09 07:14:04;;;;;;;36.00;19.67;;;0.80;99.90;;;;;;5119054;27;20053;-76
2024/03/09 07:16:30;;;;;;;36.47;20.57;;;0.80;99.90;;;;;;5126315;27;20051;-78
2024/03/09 07:18:56;;;;;;;32.97;18.67;;;0.90;99.90;;;;;;5122457;27;20050;-78
2024/03/09 07:21:23;;;;;;;34.37;19.93;;;1.00;99.90;;;;;;5121770;27;20029;-78
2024/03/09 07:23:49;;;;;;;35.30;20.73;;;1.10;99.90;;;;;;5119985;27;20027;-79
2024/03/09 07:26:15;;;;;;;36.33;21.80;;;1.20;99.90;;;;;;5118317;27;20077;-78
2024/03/09 07:28:41;;;;;;;36.43;21.77;;;1.30;99.90;;;;;;5118542;27;20030;-77
2024/03/09 07:31:06;;;;;;;37.97;21.13;;;1.40;99.90;;;;;;5115754;27;20027;-78
2024/03/09 07:33:35;;;;;;;33.83;20.27;;;1.50;99.90;;;;;;5115916;27;20129;-77
2024/03/09 07:36:01;;;;;;;38.30;20.33;;;1.60;99.90;;;;;;5123036;27;20522;-78
2024/03/09 07:38:29;;;;;;;34.00;21.53;;;1.70;99.90;;;;;;5110906;27;20062;-78
2024/03/09 07:40:55;;;;;;;37.67;21.30;;;1.90;99.90;;;;;;5113216;27;20035;-77
2024/03/09 07:43:20;;;;;;;34.73;21.03;;;2.00;99.90;;;;;;5114618;27;20034;-77
2024/03/09 07:45:46;;;;;;;37.20;20.87;;;2.10;99.90;;;;;;5113342;27;20426;-77
2024/03/09 07:48:16;;;;;;;39.00;22.33;;;2.20;99.90;;;;;;5113675;27;21552;-77
2024/03/09 07:50:46;;;;;;;35.73;21.00;;;2.30;99.90;;;;;;5120042;27;20042;-76
2024/03/09 07:53:12;;;;;;;40.03;21.23;;;2.40;99.90;;;;;;5116120;27;20150;-77
2024/03/09 07:55:37;;;;;;;35.93;22.00;;;2.50;99.90;;;;;;5117111;27;20563;-77
2024/03/09 07:58:04;;;;;;;32.73;20.67;;;2.70;99.90;;;;;;5113419;27;20035;-78
2024/03/09 08:00:33;;;;;;;39.07;21.80;;;2.80;99.90;;;;;;5119546;27;20084;-78
2024/03/09 08:03:01;;;;;;;35.53;21.70;;;2.90;99.90;;;;;;5119194;27;20051;-77
2024/03/09 08:05:28;;;;;;;34.57;21.77;;;3.00;99.90;;;;;;5119977;27;20799;-77
2024/03/09 08:07:55;;;;;;;38.77;23.07;;;3.20;99.90;;;;;;5120951;27;20053;-77
2024/03/09 08:10:25;;;;;;;35.90;21.73;;;3.40;99.90;;;;;;5113268;27;20034;-77
2024/03/09 08:12:52;;;;;;;39.97;22.27;;;3.50;99.90;;;;;;5110478;27;20024;-77
2024/03/09 08:15:18;;;;;;;39.10;21.60;;;3.60;99.90;;;;;;5104259;27;20060;-76
2024/03/09 08:17:47;;;;;;;36.27;21.80;;;3.70;99.90;;;;;;5114942;27;20028;-76
2024/03/09 08:20:14;;;;;;;35.97;22.73;;;3.80;99.90;;;;;;5115058;27;20563;-76
2024/03/09 08:22:45;;;;;;;35.27;22.13;;;3.90;99.90;;;;;;5103298;27;20043;-77
2024/03/09 08:25:11;;;;;;;39.90;22.87;;;4.00;99.90;;;;;;5107881;27;20070;-76
2024/03/09 08:27:39;;;;;;;39.53;22.93;;;4.10;99.90;;;;;;5115999;27;20154;-78
2024/03/09 08:30:06;;;;;;;38.93;23.57;;;4.30;99.90;;;;;;5114273;27;20098;-77
2024/03/09 08:32:32;;;;;;;39.00;22.67;;;4.40;99.90;;;;;;5117040;27;20277;-70
2024/03/09 08:34:58;;;;;;;41.43;24.23;;;4.50;99.90;;;;;;5112177;27;20034;-76
2024/03/09 08:37:25;;;;;;;39.57;23.77;;;4.60;99.90;;;;;;5115145;27;20020;-77
2024/03/09 08:39:51;;;;;;;36.17;21.67;;;4.70;99.90;;;;;;5117997;27;20035;-76
2024/03/09 08:42:18;;;;;;;38.77;22.53;;;4.80;99.90;;;;;;5112047;27;20110;-77
2024/03/09 08:44:44;;;;;;;36.87;22.27;;;5.00;99.90;;;;;;5110401;27;20111;-77
2024/03/09 08:47:10;;;;;;;38.73;22.50;;;5.20;99.90;;;;;;5115403;27;20072;-77
2024/03/09 08:49:36;;;;;;;34.47;20.93;;;5.30;99.90;;;;;;5116799;27;20433;-76
2024/03/09 08:52:02;;;;;;;32.97;20.90;;;5.50;99.90;;;;;;5121397;27;20041;-77
2024/03/09 08:54:31;;;;;;;38.30;20.83;;;5.60;99.90;;;;;;5111350;27;20042;-77
2024/03/09 08:56:57;;;;;;;31.33;21.13;;;5.80;99.90;;;;;;5118185;27;20035;-77
2024/03/09 08:59:22;;;;;;;31.60;20.13;;;5.90;99.90;;;;;;5111946;27;20031;-75
2024/03/09 09:01:48;;;;;;;30.77;20.73;;;6.20;99.90;;;;;;5112549;28;20117;-76
2024/03/09 09:04:17;;;;;;;27.30;17.37;;;6.40;99.90;;;;;;5117683;28;20040;-75
2024/03/09 09:06:43;;;;;;;28.33;17.17;;;6.50;99.90;;;;;;5114769;28;20450;-76
2024/03/09 09:09:16;;;;;;;26.47;16.97;;;6.80;99.90;;;;;;5112159;28;20118;-77
2024/03/09 09:11:42;;;;;;;27.10;16.27;;;7.00;99.90;;;;;;5113767;27;20011;-76
2024/03/09 09:14:08;;;;;;;23.80;14.93;;;7.20;99.90;;;;;;5114644;28;20111;-80
2024/03/09 09:16:33;;;;;;;23.77;15.00;;;7.30;99.90;;;;;;5115766;27;20107;-75
2024/03/09 09:18:59;;;;;;;23.53;14.90;;;7.50;99.90;;;;;;5110498;28;20118;-74
2024/03/09 09:21:24;;;;;;;21.73;15.10;;;7.70;99.90;;;;;;5115827;28;20402;-75
2024/03/09 09:23:50;;;;;;;22.97;14.77;;;7.90;99.90;;;;;;5111590;28;20050;-75
2024/03/09 09:26:16;;;;;;;23.40;14.83;;;8.10;99.90;;;;;;5113154;28;20027;-79
2024/03/09 09:28:41;;;;;;;21.20;15.00;;;8.30;99.90;;;;;;5117040;28;20106;-76
2024/03/09 09:31:07;;;;;;;26.90;14.03;;;8.40;99.90;;;;;;5116604;27;20457;-76
2024/03/09 09:33:33;;;;;;;20.30;13.70;;;8.60;99.90;;;;;;5115711;27;20077;-77
2024/03/09 09:35:58;;;;;;;21.60;14.23;;;8.60;99.90;;;;;;5123418;27;20024;-76
2024/03/09 09:38:26;;;;;;;19.43;13.17;;;8.80;99.90;;;;;;5113182;27;20488;-76
2024/03/09 09:40:57;;;;;;;21.53;13.00;;;8.90;99.90;;;;;;5122493;27;20539;-76
2024/03/09 09:43:28;;;;;;;18.60;12.53;;;9.00;99.90;;;;;;5120434;27;20034;-77
2024/03/09 09:45:57;;;;;;;19.70;11.60;;;9.10;99.90;;;;;;5113893;27;20023;-75
2024/03/09 09:48:24;;;;;;;20.67;11.87;;;9.30;99.90;;;;;;5115728;27;20039;-77
2024/03/09 09:50:50;;;;;;;17.40;11.27;;;9.60;99.90;;;;;;5121535;27;20035;-75
2024/03/09 09:53:18;;;;;;;15.97;10.77;;;9.90;99.90;;;;;;5120365;27;20604;-70
2024/03/09 09:55:46;;;;;;;13.87;9.40;;;9.90;99.90;;;;;;5113432;27;20019;-80
2024/03/09 09:58:14;;;;;;;18.60;9.80;;;9.90;99.90;;;;;;5113400;27;20028;-77
2024/03/09 10:00:43;;;;;;;12.23;8.80;;;10.10;99.90;;;;;;5115887;27;20023;-78
2024/03/09 10:03:10;;;;;;;13.13;9.57;;;10.20;99.90;;;;;;5117609;27;20028;-78
2024/03/09 10:05:38;;;;;;;14.83;9.47;;;10.50;99.90;;;;;;5116190;27;20123;-76
2024/03/09 10:08:09;;;;;;;13.10;8.80;;;10.60;99.90;;;;;;5119686;27;20020;-79
2024/03/09 10:10:41;;;;;;;11.77;8.67;;;10.70;99.90;;;;;;5118298;27;20023;-78
2024/03/09 10:13:08;;;;;;;11.13;7.70;;;10.90;99.90;;;;;;5118027;27;20023;-78
2024/03/09 10:15:35;;;;;;;10.97;7.60;;;11.00;99.90;;;;;;5120663;27;20019;-79
2024/03/09 10:18:05;;;;;;;11.03;7.43;;;11.10;99.90;;;;;;5121020;27;20356;-78
2024/03/09 10:20:32;;;;;;;12.43;7.40;;;11.20;99.90;;;;;;5121842;27;20039;-78
2024/03/09 10:22:59;;;;;;;12.90;7.57;;;11.40;99.90;;;;;;5123376;27;20031;-78
2024/03/09 10:25:25;;;;;;;10.87;7.43;;;11.50;99.90;;;;;;5120930;27;20019;-78
2024/03/09 10:27:55;;;;;;;10.48;6.97;;;11.70;99.90;;;;;;5122409;27;20019;-78
2024/03/09 10:30:23;;;;;;;10.95;6.75;;;11.80;99.90;;;;;;5118303;27;20078;-78
2024/03/09 10:32:49;;;;;;;8.23;6.10;;;11.90;99.90;;;;;;5116414;27;20405;-77
2024/03/09 10:35:14;;;;;;;12.88;6.40;;;12.00;99.90;;;;;;5119921;27;20152;-77
2024/03/09 10:37:41;;;;;;;;;;;12.10;99.90;;;;;;5119341;27;20491;-77
2024/03/09 10:40:12;;;;;;;;;;;12.20;99.90;;;;;;5117706;27;20422;-77
2024/03/09 10:42:41;;;;;;;;;;;12.40;99.90;;;;;;5118418;27;20090;-78
2024/03/09 10:45:11;;;;;;;;;;;12.50;99.90;;;;;;5121736;27;20034;-77
2024/03/09 10:47:42;;;;;;;;;;;12.80;99.90;;;;;;5118143;27;20069;-77
2024/03/09 10:50:09;;;;;;;;;;;12.90;99.90;;;;;;5112746;27;20064;-77
2024/03/09 10:52:37;;;;;;;;;;;13.00;99.90;;;;;;5117823;27;20038;-77
2024/03/09 10:55:05;;;;;;;;;;;13.00;99.90;;;;;;5118435;27;20508;-78
2024/03/09 10:57:32;;;;;;;;;;;13.10;99.90;;;;;;5114167;27;20478;-78
2024/03/09 10:59:59;;;;;;;;;;;13.10;99.90;;;;;;5113489;27;20049;-78
2024/03/09 11:02:25;;;;;;;;;;;13.20;99.90;;;;;;5114972;27;20113;-73
2024/03/09 11:04:51;;;;;;;;;;;13.20;99.90;;;;;;5112378;27;20035;-71
2024/03/09 11:07:17;;;;;;;;;;;13.40;99.90;;;;;;5118390;27;20060;-72
2024/03/09 11:09:45;;;;;;;;;;;13.60;99.90;;;;;;5117414;27;20038;-73
2024/03/09 11:12:11;;;;;;;;;;;13.70;99.90;;;;;;5114451;27;20032;-72
2024/03/09 11:14:47;;;;;;;;;;;13.70;99.90;;;;;;5113409;27;20034;-71
2024/03/09 11:17:13;;;;;;;;;;;13.80;99.90;;;;;;5117121;27;20660;-72
2024/03/09 11:19:43;;;;;;;;;;;14.00;99.90;;;;;;5117240;27;20165;-71
2024/03/09 11:22:08;;;;;;;;;;;14.20;99.90;;;;;;5115650;27;20442;-72
2024/03/09 11:24:39;;;;;;;;;;;14.30;99.90;;;;;;5117420;27;20109;-72
2024/03/09 11:27:05;;;;;;;;;;;14.40;99.90;;;;;;5116844;27;20031;-72
2024/03/09 11:29:36;;;;;;;;;;;14.40;99.90;;;;;;5117573;27;20134;-72
2024/03/09 11:32:05;;;;;;;;;;;14.50;99.90;;;;;;5112859;27;20494;-72
2024/03/09 11:34:31;;;;;;;;;;;14.50;99.90;;;;;;5124102;27;20032;-71
2024/03/09 11:36:58;;;;;;;;;;;14.50;99.90;;;;;;5117161;27;20533;-72
2024/03/09 11:39:28;;;;;;;;;;;14.50;99.90;;;;;;5118083;27;20045;-73
2024/03/09 11:41:54;;;;;;;;;;;14.70;99.90;;;;;;5115677;27;20729;-72
2024/03/09 11:44:24;;;;;;;;;;;15.00;99.90;;;;;;5116561;27;20038;-73
2024/03/09 11:46:50;;;;;;;;;;;15.10;99.90;;;;;;5115277;27;20042;-73
2024/03/09 11:49:16;;;;;;;;;;;15.20;99.90;;;;;;5111336;27;20430;-72
2024/03/09 11:51:42;;;;;;;;;;;15.30;99.90;;;;;;5111423;27;20137;-72
2024/03/09 11:54:11;;;;;;;;;;;15.30;99.90;;;;;;5114898;27;20043;-73
2024/03/09 11:56:36;;;;;;;;;;;15.40;99.90;;;;;;5123390;27;19994;-73
2024/03/09 11:59:02;;;;;;;;;;;15.60;99.90;;;;;;5111373;27;20118;-73
2024/03/09 12:01:28;;;;;;;;;;;15.70;99.90;;;;;;5116075;27;20018;-73
2024/03/09 12:03:58;;;;;;;;;;;15.70;99.90;;;;;;5109782;27;20035;-72
2024/03/09 12:06:23;;;;;;;;;;;15.80;99.90;;;;;;5114738;27;20030;-73
2024/03/09 12:08:51;;;;;;;;;;;16.00;99.90;;;;;;5110647;27;20018;-73
2024/03/09 12:11:19;;;;;;;;;;;15.90;99.90;;;;;;5116333;27;20055;-72
2024/03/09 12:13:49;;;;;;;;;;;16.00;99.90;;;;;;5118181;27;20083;-72
2024/03/09 12:16:15;;;;;;;;;;;16.00;99.90;;;;;;5115987;27;19926;-73
2024/03/09 12:18:42;;;;;;;;;;;16.00;99.90;;;;;;5112388;27;20043;-73
2024/03/09 12:21:08;;;;;;;;;;;16.10;99.90;;;;;;5114850;27;20268;-72
2024/03/09 12:23:34;;;;;;;;;;;16.10;99.90;;;;;;5117681;27;20031;-72
2024/03/09 12:26:00;;;;;;;;;;;16.10;99.90;;;;;;5119818;27;19911;-73
2024/03/09 12:28:27;;;;;;;;;;;16.20;99.90;;;;;;5117654;27;20291;-72
2024/03/09 12:30:53;;;;;;;;;;;16.20;99.90;;;;;;5121674;27;19903;-72
2024/03/09 12:33:18;;;;;;;;;;;16.20;99.90;;;;;;5113196;27;19946;-72
2024/03/09 12:35:46;;;;;;;;;;;16.30;99.90;;;;;;5116454;27;20365;-73
2024/03/09 12:38:11;;;;;;;;;;;16.30;99.90;;;;;;5114277;27;20101;-72
2024/03/09 12:40:38;;;;;;;;;;;16.30;99.90;;;;;;5113914;27;20117;-72
2024/03/09 12:43:06;;;;;;;;;;;16.40;99.90;;;;;;5112804;27;20087;-71
2024/03/09 12:45:32;;;;;;;;;;;16.40;99.90;;;;;;5113579;27;20041;-72
2024/03/09 12:48:00;;;;;;;;;;;16.60;99.90;;;;;;5111418;27;20539;-71
2024/03/09 12:50:26;;;;;;;;;;;16.60;99.90;;;;;;5111934;27;20003;-71
2024/03/09 12:52:52;;;;;;;;;;;16.50;99.90;;;;;;5121909;27;20052;-71
2024/03/09 12:55:19;;;;;;;;;;;16.50;99.90;;;;;;5118086;27;20532;-72